Time;durP1;ratioP1;P1;durP2;ratioP2;P2;SDS_P1;SDS_P2;PMS_P1;PMS_P2;Temp;Humidity;BMP_temperature;BMP_pressure;BME280_temperature;BME280_humidity;BME280_pressure;Samples;Min_cycle;Max_cycle;Signal;HPM_P1;HPM_P2
2023/10/05 12:25:44;;;;;;;11.03;4.47;;;22.80;71.10;;;24.74;47.03;102143.25;3183712;42;209240;-84
2023/10/05 12:28:14;;;;;;;13.20;4.00;;;23.10;69.80;;;24.74;47.02;102145.94;3112756;43;212516;-86
2023/10/05 12:32:29;;;;;;;8.60;3.93;;;23.20;69.80;;;24.80;46.36;102153.94;3123728;42;31215;-88
2023/10/05 19:47:07;;;;;;;4.40;1.30;;;19.40;92.00;;;19.77;62.14;102316.47;3085283;43;1099330;-88
2023/10/05 19:49:37;;;;;;;4.57;1.53;;;19.40;83.10;;;20.40;60.93;102314.53;3099736;46;21386;-85
2023/10/05 19:52:05;;;;;;;3.47;1.63;;;19.50;83.40;;;20.96;59.10;102312.44;3104156;46;20441;-86
2023/10/05 19:54:36;;;;;;;2.80;1.43;;;19.70;83.00;;;21.42;57.41;102303.41;3108454;46;20979;-86
2023/10/05 19:57:04;;;;;;;4.10;1.70;;;19.90;82.20;;;21.80;56.29;102305.44;3111217;46;20473;-88
2023/10/05 19:59:32;;;;;;;3.67;1.63;;;20.20;81.50;;;22.10;55.36;102302.06;3111512;46;20663;-92
2023/10/05 20:02:08;;;;;;;3.73;1.90;;;20.50;80.60;;;22.36;54.57;102306.50;3101609;46;20437;-89
2023/10/05 20:04:49;;;;;;;2.97;1.97;;;20.70;79.80;;;22.63;53.68;102312.59;3107083;46;21528;-90
2023/10/05 20:07:27;;;;;;;2.73;1.60;;;20.90;78.80;;;22.82;53.16;102311.66;3092131;46;20430;31
2023/10/05 20:10:05;;;;;;;2.67;1.83;;;21.10;78.00;;;23.01;52.49;102305.28;3109422;46;20530;-86
2023/10/05 20:12:33;;;;;;;3.10;1.63;;;21.30;77.50;;;23.15;51.84;102314.09;3096782;46;21108;-85
2023/10/05 20:15:02;;;;;;;3.47;1.87;;;21.40;76.90;;;23.28;51.60;102312.09;3098123;46;20452;-86
2023/10/05 20:17:30;;;;;;;1.93;1.47;;;21.50;76.40;;;23.40;50.99;102306.84;3105514;46;23180;-87
2023/10/05 20:19:58;;;;;;;2.50;1.60;;;21.70;75.90;;;23.51;50.92;102301.56;3106934;46;20433;-86
2023/10/05 20:22:27;;;;;;;2.97;1.40;;;21.80;75.50;;;23.63;50.46;102309.72;3102405;46;20449;-86
2023/10/05 20:24:55;;;;;;;3.20;1.50;;;21.90;75.00;;;23.72;50.29;102307.59;3104340;46;20429;-86
2023/10/05 20:27:24;;;;;;;2.80;1.40;;;22.00;74.70;;;23.77;50.05;102310.44;3104966;46;20434;-86
2023/10/05 20:29:52;;;;;;;3.10;1.40;;;22.00;74.20;;;23.84;49.92;102312.03;3104435;46;20457;-88
2023/10/05 20:32:21;;;;;;;3.03;1.40;;;22.20;74.00;;;23.93;49.50;102312.53;3109606;46;20437;-88
2023/10/05 20:34:49;;;;;;;1.97;1.37;;;22.20;73.60;;;24.01;49.36;102312.25;3106930;46;20450;-87
2023/10/05 20:37:17;;;;;;;1.80;1.40;;;22.30;73.40;;;24.04;49.33;102315.31;3107687;46;20480;-92
2023/10/05 20:39:48;;;;;;;4.47;1.90;;;22.40;73.10;;;24.12;49.02;102320.41;3097354;46;21481;-92
2023/10/05 20:42:17;;;;;;;1.30;1.20;;;22.40;72.90;;;24.15;48.68;102319.16;3111603;46;20426;-92
2023/10/05 20:44:47;;;;;;;2.80;1.67;;;22.50;72.60;;;24.20;49.11;102312.03;3109579;43;53788;-89
2023/10/05 20:48:44;;;;;;;2.20;1.47;;;22.50;72.40;;;24.29;48.62;102317.09;3116154;43;431682;-88
2023/10/05 20:51:12;;;;;;;2.33;1.57;;;22.70;72.20;;;24.34;48.27;102317.25;3099358;43;921961;-88
2023/10/05 20:53:41;;;;;;;2.30;1.40;;;22.70;71.90;;;24.34;47.96;102317.25;3110069;43;34345;-92
2023/10/05 20:56:13;;;;;;;2.83;1.43;;;22.70;71.70;;;24.38;48.17;102324.66;3110890;43;37293;-81
2023/10/05 20:58:43;;;;;;;4.30;1.43;;;22.60;71.50;;;24.58;47.79;102319.00;3103341;43;30958;-82
2023/10/05 21:01:11;;;;;;;2.70;1.67;;;22.80;71.70;;;24.83;47.85;102323.22;3094876;46;20453;-83
2023/10/05 21:03:40;;;;;;;4.80;1.83;;;22.10;70.80;;;25.02;46.75;102329.34;3110915;43;39797;-82
2023/10/05 21:06:09;;;;;;;2.43;1.50;;;22.10;70.40;;;25.38;46.60;102326.50;3099173;43;66172;-82
2023/10/05 21:08:43;;;;;;;2.70;1.80;;;23.20;71.20;;;25.46;46.39;102328.03;3107727;46;20449;-88
2023/10/05 22:29:48;;;;;;;42.30;17.13;;;23.30;69.40;;;23.26;50.80;102273.88;3114708;43;29445;-84
2023/10/05 22:34:08;;;;;;;34.50;17.67;;;23.10;69.20;;;23.50;50.11;102272.25;2547071;43;8690368;-84
2023/10/05 22:36:36;;;;;;;34.37;17.90;;;23.10;70.00;;;23.61;49.92;102263.44;3110811;43;87151;-81
2023/10/05 22:39:05;;;;;;;29.77;16.53;;;23.10;69.50;;;23.62;49.57;102259.72;3091984;46;21076;-81
2023/10/05 22:41:34;;;;;;;33.40;17.20;;;23.10;69.20;;;23.61;49.55;102279.56;3091523;46;21044;-81
2023/10/05 22:44:04;;;;;;;35.30;16.53;;;23.10;69.00;;;23.58;49.51;102277.34;3091145;46;20422;-81
2023/10/05 22:46:32;;;;;;;26.63;14.03;;;23.20;68.90;;;23.58;50.07;102279.19;3092052;43;27390;-82
2023/10/05 22:49:01;;;;;;;30.70;15.90;;;23.10;68.70;;;23.52;49.67;102280.91;3091466;46;20457;-82
2023/10/05 22:51:30;;;;;;;31.53;14.73;;;23.10;68.60;;;23.43;49.96;102271.47;3089691;46;20464;-82
2023/10/05 22:53:58;;;;;;;27.57;14.30;;;23.10;68.50;;;23.42;49.96;102269.81;3091318;46;20544;-82
2023/10/05 22:56:27;;;;;;;23.47;12.77;;;23.10;68.60;;;23.34;50.32;102276.28;3089716;46;20846;-83
2023/10/05 22:59:03;;;;;;;25.30;13.30;;;23.00;68.60;;;23.29;50.63;102275.31;3090817;46;20512;-83
2023/10/05 23:01:41;;;;;;;25.40;12.30;;;22.90;68.60;;;23.26;50.32;102267.69;3090052;46;20523;-82
2023/10/05 23:04:11;;;;;;;25.53;13.30;;;22.90;69.00;;;23.23;50.38;102273.47;3091158;46;20430;-82
2023/10/05 23:06:40;;;;;;;22.40;12.80;;;22.80;69.10;;;23.13;50.96;102276.66;3092924;46;20517;-82
2023/10/05 23:09:09;;;;;;;24.43;12.23;;;22.70;69.20;;;23.11;50.73;102269.88;3091681;46;20477;-82
2023/10/05 23:11:40;;;;;;;22.10;12.07;;;22.60;69.40;;;23.06;51.02;102265.16;3091773;46;20425;-85
2023/10/05 23:14:11;;;;;;;22.50;10.93;;;22.60;69.70;;;23.03;51.00;102265.63;3091798;46;20422;-82
2023/10/05 23:16:40;;;;;;;19.03;10.47;;;22.50;69.80;;;22.99;50.90;102255.53;3091819;46;20476;-82
2023/10/05 23:19:11;;;;;;;19.10;10.67;;;22.40;69.90;;;22.96;51.24;102256.78;3091991;46;20433;-82
2023/10/05 23:21:42;;;;;;;16.03;9.60;;;22.40;70.10;;;22.92;51.04;102259.06;3092604;46;20451;-83
2023/10/05 23:24:12;;;;;;;15.97;9.17;;;22.30;70.30;;;22.87;51.48;102248.16;3092212;46;20477;-83
2023/10/05 23:26:44;;;;;;;19.50;9.63;;;22.30;70.40;;;22.81;51.37;102261.66;3091634;46;20531;-82
2023/10/05 23:29:19;;;;;;;16.37;9.73;;;22.20;70.50;;;22.81;51.33;102251.72;3091798;46;20495;-83
2023/10/05 23:31:55;;;;;;;20.10;9.37;;;22.20;70.70;;;22.76;51.53;102259.63;3092056;46;20434;-83
2023/10/05 23:34:28;;;;;;;16.83;8.60;;;22.10;70.80;;;22.72;51.81;102258.41;3091771;46;20454;-82
2023/10/05 23:37:02;;;;;;;15.50;8.47;;;22.10;70.90;;;22.69;51.40;102266.91;3092091;46;20422;-82
2023/10/05 23:39:31;;;;;;;17.47;9.27;;;22.00;71.00;;;22.69;51.88;102269.56;3092369;46;20544;-82
2023/10/05 23:42:17;;;;;;;15.63;8.90;;;22.00;71.20;;;22.63;51.81;102264.25;3091394;46;21020;-82
2023/10/05 23:44:46;;;;;;;15.13;8.67;;;21.90;71.30;;;22.59;52.17;102258.44;3083988;46;20451;-82
2023/10/05 23:47:21;;;;;;;16.77;9.13;;;21.90;71.50;;;22.59;51.97;102263.81;3082436;46;20503;-82
2023/10/05 23:49:52;;;;;;;16.07;8.73;;;21.90;71.60;;;22.59;51.90;102277.25;3081828;46;20435;-82
2023/10/05 23:52:21;;;;;;;16.17;7.83;;;21.80;71.60;;;22.57;52.15;102275.81;3082437;46;21134;-82
2023/10/05 23:54:50;;;;;;;15.97;8.17;;;21.80;71.90;;;22.52;51.99;102281.81;3081498;46;20451;-82
2023/10/05 23:57:20;;;;;;;15.43;8.30;;;21.70;71.90;;;22.50;51.98;102286.59;3082381;46;21044;-82
2023/10/05 23:59:49;;;;;;;13.40;7.17;;;21.70;72.00;;;22.47;52.09;102275.44;3081749;46;21107;-83
